Time;durP1;ratioP1;P1;durP2;ratioP2;P2;SDS_P1;SDS_P2;PMS_P1;PMS_P2;Temp;Humidity;BMP_temperature;BMP_pressure;BME280_temperature;BME280_humidity;BME280_pressure;Samples;Min_cycle;Max_cycle;Signal;HPM_P1;HPM_P2
2022/04/28 00:00:21;;;;;;;8.87;7.47;;;7.60;99.90;;;;;;5026180;28;20199;-87
2022/04/28 00:02:48;;;;;;;8.53;7.40;;;7.60;99.90;;;;;;5035755;28;20314;-86
2022/04/28 00:05:14;;;;;;;8.20;7.40;;;7.50;99.90;;;;;;5019227;28;20200;-86
2022/04/28 00:07:41;;;;;;;8.53;7.50;;;7.50;99.90;;;;;;5019517;28;20216;-86
2022/04/28 00:10:09;;;;;;;8.00;7.20;;;7.50;99.90;;;;;;5019175;28;20180;-87
2022/04/28 00:12:35;;;;;;;7.70;6.90;;;7.50;99.90;;;;;;5028469;28;20185;-88
2022/04/28 00:15:01;;;;;;;8.17;7.37;;;7.50;99.90;;;;;;5043861;28;20215;-87
2022/04/28 00:17:27;;;;;;;9.57;8.07;;;7.40;99.90;;;;;;5001541;28;20196;-87
2022/04/28 00:19:53;;;;;;;8.17;7.33;;;7.40;99.90;;;;;;4998953;28;20185;-87
2022/04/28 00:22:19;;;;;;;7.17;6.47;;;7.40;99.90;;;;;;4999343;28;20184;-88
2022/04/28 00:24:45;;;;;;;7.53;6.77;;;7.30;99.90;;;;;;4999428;28;20202;-88
2022/04/28 00:27:11;;;;;;;7.40;6.67;;;7.20;99.90;;;;;;5000696;28;20213;-88
2022/04/28 00:29:37;;;;;;;8.40;7.50;;;7.10;99.90;;;;;;5005694;28;20275;-88
2022/04/28 00:32:03;;;;;;;9.13;7.60;;;7.00;99.90;;;;;;5038820;28;20181;-88
2022/04/28 00:34:29;;;;;;;10.40;7.90;;;7.00;99.90;;;;;;5022193;28;20208;-88
2022/04/28 00:36:55;;;;;;;8.03;7.07;;;7.00;99.90;;;;;;5018582;28;20199;-88
2022/04/28 00:39:21;;;;;;;10.27;7.83;;;6.90;99.90;;;;;;5018338;28;20266;-88
2022/04/28 00:42:23;;;;;;;9.73;7.77;;;6.90;99.90;;;;;;5018624;28;20184;-88
2022/04/28 00:44:51;;;;;;;9.00;8.10;;;6.70;99.90;;;;;;5034761;28;20227;-88
2022/04/28 00:51:05;;;;;;;9.43;8.43;;;6.60;99.90;;;;;;5052548;28;20249;-88
2022/04/28 00:53:35;;;;;;;10.07;7.73;;;6.60;99.90;;;;;;5018134;28;20210;-88
2022/04/28 00:56:01;;;;;;;10.37;8.10;;;6.60;99.90;;;;;;5018346;28;20206;-88
2022/04/28 00:58:27;;;;;;;9.37;7.90;;;6.50;99.90;;;;;;5034651;28;20193;-88
2022/04/28 01:00:55;;;;;;;10.13;7.77;;;6.60;99.90;;;;;;5003321;28;20196;-88
2022/04/28 01:03:21;;;;;;;9.13;7.40;;;6.70;99.90;;;;;;4998469;28;20210;-88
2022/04/28 01:06:12;;;;;;;9.57;7.37;;;6.70;99.90;;;;;;4997155;28;20294;-88
2022/04/28 01:08:39;;;;;;;10.53;7.70;;;6.70;99.90;;;;;;4998719;28;20172;-88
2022/04/28 01:11:05;;;;;;;10.83;7.67;;;6.70;99.90;;;;;;4998311;28;20189;-88
2022/04/28 01:13:36;;;;;;;9.37;7.67;;;6.70;99.90;;;;;;4999012;28;20180;-88
2022/04/28 01:16:13;;;;;;;8.13;7.00;;;6.70;99.90;;;;;;4999850;28;20180;-88
2022/04/28 01:18:41;;;;;;;8.60;7.70;;;6.70;99.90;;;;;;5014527;28;20201;-88
2022/04/28 01:21:08;;;;;;;11.93;7.90;;;6.70;99.90;;;;;;4997967;28;20196;-88
2022/04/28 01:23:37;;;;;;;8.70;7.20;;;6.60;99.90;;;;;;4998665;28;20188;-88
2022/04/28 01:26:05;;;;;;;8.87;7.63;;;6.60;99.90;;;;;;4998620;28;20243;-87
2022/04/28 01:28:33;;;;;;;9.03;7.40;;;6.60;99.90;;;;;;4998319;28;20178;-88
2022/04/28 01:31:00;;;;;;;8.97;7.80;;;6.50;99.90;;;;;;4997920;28;20180;-88
2022/04/28 01:33:32;;;;;;;8.47;7.57;;;6.50;99.90;;;;;;4998504;28;20184;-88
2022/04/28 01:35:59;;;;;;;8.13;7.30;;;6.40;99.90;;;;;;4998352;28;20201;-88
2022/04/28 01:38:27;;;;;;;9.17;6.87;;;6.30;99.90;;;;;;5002139;28;20643;-88
2022/04/28 01:40:53;;;;;;;8.17;7.07;;;6.20;99.90;;;;;;5001864;28;20188;-88
2022/04/28 01:43:19;;;;;;;8.83;7.23;;;6.20;99.90;;;;;;5001999;28;20233;-88
2022/04/28 01:45:45;;;;;;;8.20;7.40;;;6.10;99.90;;;;;;5001816;28;20242;-88
2022/04/28 01:48:17;;;;;;;8.10;7.30;;;6.10;99.90;;;;;;5002716;28;20186;-88
2022/04/28 01:56:53;;;;;;;8.57;7.67;;;6.10;99.90;;;;;;5027781;28;20187;-88
2022/04/28 01:59:37;;;;;;;8.27;7.03;;;6.00;99.90;;;;;;5020469;28;20203;-88
2022/04/28 02:02:19;;;;;;;8.40;7.10;;;5.90;99.90;;;;;;5020364;28;20170;-88
2022/04/28 02:04:45;;;;;;;8.77;7.73;;;5.90;99.90;;;;;;5017681;28;20290;-88
2022/04/28 02:07:13;;;;;;;9.07;7.20;;;5.80;99.90;;;;;;5017789;28;20285;-88
2022/04/28 02:09:41;;;;;;;7.53;6.83;;;5.80;99.90;;;;;;5017495;28;20271;-88
2022/04/28 02:12:09;;;;;;;10.13;7.80;;;5.80;99.90;;;;;;5018225;28;20172;-87
2022/04/28 02:15:01;;;;;;;8.80;7.20;;;5.70;99.90;;;;;;5017283;28;20199;-88
2022/04/28 02:18:03;;;;;;;11.27;8.60;;;5.70;99.90;;;;;;5020870;28;20182;-88
2022/04/28 02:20:30;;;;;;;8.43;7.57;;;5.70;99.90;;;;;;5017429;28;20171;-87
2022/04/28 02:22:56;;;;;;;10.33;8.20;;;5.60;99.90;;;;;;5017789;28;20182;-88
2022/04/28 02:25:24;;;;;;;9.67;8.20;;;5.60;99.90;;;;;;5017137;28;20205;-88
2022/04/28 02:27:51;;;;;;;11.37;8.77;;;5.50;99.90;;;;;;5017371;28;20178;-88
2022/04/28 02:30:22;;;;;;;8.77;7.83;;;5.60;99.90;;;;;;5010941;28;20183;-88
2022/04/28 02:35:49;;;;;;;10.00;8.77;;;5.60;99.90;;;;;;5036534;28;20228;-88
2022/04/28 02:38:15;;;;;;;11.77;9.20;;;5.50;99.90;;;;;;5020973;28;20190;-88
2022/04/28 02:40:41;;;;;;;10.40;8.97;;;5.60;99.90;;;;;;5020379;28;20185;-88
2022/04/28 02:43:07;;;;;;;10.83;7.90;;;5.50;99.90;;;;;;5020396;28;20203;-88
2022/04/28 02:45:33;;;;;;;11.10;8.10;;;5.60;99.90;;;;;;5020305;28;20263;-88
2022/04/28 02:47:59;;;;;;;10.23;8.23;;;5.60;99.90;;;;;;5019765;28;20201;-87
2022/04/28 02:50:26;;;;;;;9.87;7.93;;;5.60;99.90;;;;;;5020295;28;20208;-87
2022/04/28 02:52:53;;;;;;;9.00;7.53;;;5.50;99.90;;;;;;5020225;28;20187;-88
2022/04/28 02:55:20;;;;;;;8.37;7.00;;;5.50;99.90;;;;;;5020273;28;20199;-88
2022/04/28 02:57:47;;;;;;;9.03;7.83;;;5.50;99.90;;;;;;5020238;28;20533;-88
2022/04/28 03:00:15;;;;;;;8.87;7.23;;;5.40;99.90;;;;;;5011476;28;20213;-88
2022/04/28 03:03:02;;;;;;;9.70;7.47;;;5.50;99.90;;;;;;5003274;28;20174;-88
2022/04/28 03:05:28;;;;;;;9.23;7.70;;;5.40;99.90;;;;;;5000116;28;20263;-87
2022/04/28 03:13:13;;;;;;;8.13;7.23;;;5.30;99.90;;;;;;5029532;28;20186;-88
2022/04/28 03:15:41;;;;;;;8.60;7.23;;;5.30;99.90;;;;;;5002778;28;20289;-87
2022/04/28 03:18:07;;;;;;;8.07;7.27;;;5.30;99.90;;;;;;5013055;28;20179;-88
2022/04/28 03:20:34;;;;;;;7.80;6.67;;;5.20;99.90;;;;;;5020646;28;20257;-88
2022/04/28 03:23:30;;;;;;;8.97;7.90;;;5.20;99.90;;;;;;5023372;28;20163;-89
2022/04/28 03:25:58;;;;;;;8.73;6.87;;;5.00;99.90;;;;;;5023815;28;20210;-88
2022/04/28 03:28:25;;;;;;;8.70;7.37;;;5.00;99.90;;;;;;5019512;28;20234;-87
2022/04/28 03:30:53;;;;;;;9.87;7.17;;;5.00;99.90;;;;;;5031170;28;20171;-88
2022/04/28 03:33:23;;;;;;;10.07;7.03;;;4.90;99.90;;;;;;5039178;28;20177;-86
2022/04/28 03:35:49;;;;;;;8.93;7.93;;;4.90;99.90;;;;;;5034236;28;20201;-86
2022/04/28 03:38:15;;;;;;;7.70;6.90;;;4.80;99.90;;;;;;5039506;28;20296;-86
2022/04/28 03:40:43;;;;;;;11.17;7.47;;;4.80;99.90;;;;;;5039090;28;20212;-86
2022/04/28 03:43:09;;;;;;;9.53;8.23;;;4.80;99.90;;;;;;5039937;28;20191;-86
2022/04/28 03:45:36;;;;;;;9.57;7.87;;;4.70;99.90;;;;;;5038832;28;20220;-86
2022/04/28 03:48:11;;;;;;;8.77;7.57;;;4.60;99.90;;;;;;5040128;28;20200;-86
2022/04/28 03:50:37;;;;;;;7.67;6.63;;;4.60;99.90;;;;;;5038738;28;20170;-86
2022/04/28 03:53:05;;;;;;;8.30;6.90;;;4.60;99.90;;;;;;5038892;28;20182;-86
2022/04/28 03:55:31;;;;;;;8.73;7.43;;;4.60;99.90;;;;;;5039115;28;20197;-86
2022/04/28 03:57:58;;;;;;;9.50;7.93;;;4.60;99.90;;;;;;5055531;28;20169;-86
2022/04/28 04:00:33;;;;;;;10.23;7.07;;;4.60;99.90;;;;;;5037294;28;20181;-86
2022/04/28 04:03:05;;;;;;;7.57;6.73;;;4.60;99.90;;;;;;5039452;28;20173;-86
2022/04/28 04:05:32;;;;;;;8.90;7.67;;;4.60;99.90;;;;;;5039022;28;20197;-86
2022/04/28 04:07:58;;;;;;;9.73;7.47;;;4.60;99.90;;;;;;5039192;28;20241;-86
2022/04/28 04:10:32;;;;;;;9.97;7.53;;;4.60;99.90;;;;;;5066761;28;20156;-86
2022/04/28 04:13:08;;;;;;;9.03;7.00;;;4.50;99.90;;;;;;5060776;28;20180;-86
2022/04/28 04:15:45;;;;;;;9.07;7.03;;;4.50;99.90;;;;;;5026914;28;20209;-86
2022/04/28 04:18:25;;;;;;;9.57;7.57;;;4.60;99.90;;;;;;5024091;28;20192;-86
2022/04/28 04:21:05;;;;;;;8.30;7.23;;;4.60;99.90;;;;;;5039442;28;20265;-86
2022/04/28 04:23:32;;;;;;;10.53;8.50;;;4.60;99.90;;;;;;5016524;28;20712;-86
2022/04/28 04:25:59;;;;;;;9.10;8.10;;;4.60;99.90;;;;;;5018984;28;20205;-86
2022/04/28 04:28:25;;;;;;;8.80;7.77;;;4.50;99.90;;;;;;5019229;28;20171;-86
2022/04/28 04:34:18;;;;;;;12.73;8.17;;;4.60;99.90;;;;;;4972324;28;20192;-86
2022/04/28 04:36:44;;;;;;;8.60;7.07;;;4.60;99.90;;;;;;4991020;28;20194;-86
2022/04/28 04:39:11;;;;;;;11.43;7.70;;;4.60;99.90;;;;;;5015454;28;20182;-86
2022/04/28 04:41:40;;;;;;;8.03;7.13;;;4.60;99.90;;;;;;4999903;28;20185;-86
2022/04/28 04:44:12;;;;;;;9.23;7.43;;;4.70;99.90;;;;;;4999568;28;20289;-86
2022/04/28 04:46:41;;;;;;;11.97;7.20;;;4.70;99.90;;;;;;4999633;28;20223;-86
2022/04/28 04:49:30;;;;;;;8.37;6.33;;;4.80;99.90;;;;;;5021894;28;20249;-86
2022/04/28 04:52:17;;;;;;;7.17;6.40;;;4.80;99.90;;;;;;5034830;28;20173;-86
2022/04/28 04:55:16;;;;;;;7.40;6.60;;;4.90;99.90;;;;;;5055927;28;20196;-86
2022/04/28 04:58:03;;;;;;;8.03;7.10;;;5.00;99.90;;;;;;5037440;28;20193;-86
2022/04/28 05:00:29;;;;;;;8.17;7.23;;;5.00;99.90;;;;;;5018467;28;20300;-86
2022/04/28 05:03:20;;;;;;;9.00;7.23;;;5.10;99.90;;;;;;4991244;28;20194;-86
2022/04/28 05:05:56;;;;;;;8.70;7.67;;;5.10;99.90;;;;;;5015988;28;20217;-87
2022/04/28 05:08:29;;;;;;;10.53;8.33;;;5.20;99.90;;;;;;5000023;28;20179;-86
2022/04/28 05:11:09;;;;;;;11.07;8.70;;;5.30;99.90;;;;;;5012916;28;20175;-84
2022/04/28 05:13:42;;;;;;;10.37;8.67;;;5.40;99.90;;;;;;5004136;28;20174;-85
2022/04/28 05:16:10;;;;;;;10.40;8.40;;;5.40;99.90;;;;;;5034702;28;20186;-85
2022/04/28 05:18:50;;;;;;;9.60;8.50;;;5.40;99.90;;;;;;5035497;28;20180;-86
2022/04/28 05:21:35;;;;;;;9.30;8.17;;;5.40;99.90;;;;;;5018777;28;20175;-85
2022/04/28 05:24:13;;;;;;;9.83;7.97;;;5.50;99.90;;;;;;5020573;28;20202;-85
2022/04/28 05:26:57;;;;;;;10.50;8.67;;;5.60;99.90;;;;;;5021352;28;20272;-85
2022/04/28 05:29:41;;;;;;;9.67;8.40;;;5.70;99.90;;;;;;5021135;28;20179;-85
2022/04/28 05:32:32;;;;;;;10.43;8.40;;;5.70;99.90;;;;;;5018827;28;20233;-85
2022/04/28 05:35:07;;;;;;;11.60;9.10;;;5.90;99.90;;;;;;5020012;28;20210;-85
2022/04/28 05:37:34;;;;;;;12.93;10.00;;;6.00;99.90;;;;;;5018456;28;20203;-85
2022/04/28 05:40:03;;;;;;;12.90;10.43;;;6.00;99.90;;;;;;5002048;28;20191;-85
2022/04/28 05:47:57;;;;;;;10.20;8.23;;;6.50;99.90;;;;;;5034875;28;20189;-85
2022/04/28 05:50:24;;;;;;;9.20;8.23;;;6.60;99.90;;;;;;5018119;28;20183;-85
2022/04/28 05:52:50;;;;;;;10.30;8.47;;;6.70;99.90;;;;;;5018321;28;20178;-85
2022/04/28 05:55:17;;;;;;;10.30;9.10;;;6.80;99.90;;;;;;5017818;28;20212;-85
2022/04/28 05:57:43;;;;;;;8.90;8.00;;;6.90;99.90;;;;;;5018002;28;20184;-86
2022/04/28 06:00:09;;;;;;;10.37;7.90;;;7.10;99.90;;;;;;5045353;28;20680;-86
2022/04/28 06:02:41;;;;;;;9.10;7.97;;;7.20;99.90;;;;;;5058569;28;20176;-85
2022/04/28 06:05:13;;;;;;;9.50;8.43;;;7.30;99.90;;;;;;5041581;28;20250;-85
2022/04/28 06:07:40;;;;;;;11.13;9.53;;;7.30;99.90;;;;;;5040806;28;20208;-85
2022/04/28 06:10:07;;;;;;;11.70;9.33;;;7.30;99.90;;;;;;5057312;28;20180;-85
2022/04/28 06:12:48;;;;;;;10.10;8.47;;;7.40;99.90;;;;;;5040640;28;20196;-85
2022/04/28 06:15:32;;;;;;;9.60;8.60;;;7.50;99.90;;;;;;5059043;28;20199;-85
2022/04/28 06:18:10;;;;;;;10.47;8.50;;;7.60;99.90;;;;;;5059541;28;20199;-85
2022/04/28 06:20:37;;;;;;;11.13;9.93;;;7.70;99.90;;;;;;5040715;28;20176;-86
2022/04/28 06:23:12;;;;;;;10.27;9.10;;;7.90;99.90;;;;;;5041046;28;20712;-86
2022/04/28 06:26:29;;;;;;;12.13;10.17;;;8.00;99.90;;;;;;5041513;28;20215;-86
2022/04/28 06:28:55;;;;;;;11.20;9.50;;;8.20;99.90;;;;;;5040614;28;20168;-86
2022/04/28 06:31:21;;;;;;;11.50;9.80;;;8.30;99.90;;;;;;5022166;28;20185;-86
2022/04/28 06:34:07;;;;;;;10.77;9.57;;;8.40;99.90;;;;;;5038654;28;20202;-86
2022/04/28 06:36:39;;;;;;;11.17;9.93;;;8.60;99.90;;;;;;5021247;28;20186;-86
2022/04/28 06:39:04;;;;;;;11.97;10.67;;;8.70;99.90;;;;;;5020448;28;20205;-86
2022/04/28 06:41:43;;;;;;;12.57;10.00;;;8.80;99.90;;;;;;5020442;28;20204;-86
2022/04/28 06:44:23;;;;;;;12.93;10.20;;;8.90;99.90;;;;;;5022288;28;20202;-86
2022/04/28 06:47:09;;;;;;;11.73;9.67;;;8.90;99.90;;;;;;5039544;28;20209;-86
2022/04/28 06:49:35;;;;;;;11.63;10.43;;;9.10;99.90;;;;;;5037132;28;20186;-86
2022/04/28 06:52:19;;;;;;;13.33;9.93;;;9.20;99.90;;;;;;5039821;28;20273;-86
2022/04/28 06:54:51;;;;;;;12.57;10.90;;;9.40;99.90;;;;;;5038078;28;20206;-86
2022/04/28 06:57:22;;;;;;;12.80;11.13;;;9.50;99.90;;;;;;5020793;28;20189;-86
2022/04/28 06:59:48;;;;;;;11.57;9.83;;;9.50;99.90;;;;;;5014137;28;20182;-86
2022/04/28 07:02:20;;;;;;;13.77;10.33;;;9.60;99.90;;;;;;5000782;28;20186;-86
2022/04/28 07:04:47;;;;;;;12.13;10.83;;;9.60;99.90;;;;;;5016452;28;20198;-86
2022/04/28 07:07:17;;;;;;;12.10;10.80;;;9.70;99.90;;;;;;5016901;28;20199;-86
2022/04/28 07:09:45;;;;;;;11.47;10.37;;;9.80;99.90;;;;;;5016407;28;20274;-86
2022/04/28 07:12:12;;;;;;;12.37;10.57;;;10.00;99.90;;;;;;5016683;28;20238;-86
2022/04/28 07:14:58;;;;;;;12.10;10.80;;;10.00;99.90;;;;;;4999188;28;20203;-86
2022/04/28 07:17:43;;;;;;;11.90;10.70;;;10.20;99.90;;;;;;5019328;28;20174;-86
2022/04/28 07:20:45;;;;;;;11.77;9.77;;;10.20;99.90;;;;;;5015796;28;20183;-86
2022/04/28 07:23:12;;;;;;;11.57;10.37;;;10.30;99.90;;;;;;5000592;28;20240;-86
2022/04/28 07:25:40;;;;;;;12.80;11.47;;;10.30;99.90;;;;;;5016422;28;20202;-86
2022/04/28 07:28:06;;;;;;;11.10;10.00;;;10.50;99.90;;;;;;5016257;28;20643;-86
2022/04/28 07:31:02;;;;;;;12.37;10.23;;;10.60;99.90;;;;;;5010403;28;20182;-86
2022/04/28 07:33:52;;;;;;;11.73;10.30;;;10.90;99.90;;;;;;5018205;28;20186;-86
2022/04/28 07:36:58;;;;;;;11.80;10.60;;;11.00;99.90;;;;;;5018653;28;20212;-86
2022/04/28 07:39:27;;;;;;;13.27;10.33;;;11.00;99.90;;;;;;5016303;28;20244;-86
2022/04/28 07:42:12;;;;;;;13.80;10.67;;;11.10;99.90;;;;;;5019015;28;20170;-86
2022/04/28 07:44:41;;;;;;;11.77;10.27;;;11.20;99.90;;;;;;5016243;28;20198;-86
2022/04/28 07:47:08;;;;;;;13.37;10.57;;;11.40;99.90;;;;;;5015875;28;20208;-86
2022/04/28 07:49:40;;;;;;;11.30;10.20;;;11.60;99.90;;;;;;5016185;28;20182;-86
2022/04/28 07:52:07;;;;;;;11.67;10.47;;;11.80;99.90;;;;;;5015936;28;20187;-86
2022/04/28 07:54:33;;;;;;;10.73;8.83;;;11.90;99.90;;;;;;5015948;28;20223;-86
2022/04/28 07:56:58;;;;;;;9.53;8.63;;;12.00;99.90;;;;;;4998718;28;20650;-86
2022/04/28 07:59:27;;;;;;;9.70;8.60;;;12.30;99.90;;;;;;5002840;28;20195;-86
2022/04/28 08:01:58;;;;;;;9.83;8.83;;;12.50;99.90;;;;;;5019669;28;20189;-87
2022/04/28 08:04:26;;;;;;;10.73;7.93;;;12.80;99.90;;;;;;5019319;28;20224;-86
2022/04/28 08:06:56;;;;;;;9.40;8.30;;;13.00;99.90;;;;;;5019522;28;20588;-86
2022/04/28 08:09:24;;;;;;;9.60;8.60;;;13.20;99.90;;;;;;5019155;28;20402;-86
2022/04/28 08:11:50;;;;;;;10.93;7.93;;;13.40;99.90;;;;;;5018944;28;20196;-86
2022/04/28 08:14:17;;;;;;;7.23;6.50;;;13.70;99.90;;;;;;5018694;28;20194;-86
2022/04/28 08:16:44;;;;;;;7.83;7.03;;;13.90;99.90;;;;;;5018865;28;20178;-86
2022/04/28 08:19:11;;;;;;;10.17;9.17;;;14.10;99.90;;;;;;5018696;28;20208;-86
2022/04/28 08:21:43;;;;;;;8.83;7.93;;;14.20;99.90;;;;;;5019578;28;20189;-86
2022/04/28 08:24:09;;;;;;;8.37;7.57;;;14.40;99.90;;;;;;5018565;28;20194;-86
2022/04/28 08:26:37;;;;;;;8.77;7.67;;;14.60;99.90;;;;;;5018793;28;20685;-86
2022/04/28 08:29:04;;;;;;;5.67;5.17;;;14.80;99.90;;;;;;5034797;28;20185;-87
2022/04/28 08:31:32;;;;;;;8.13;7.07;;;14.80;99.90;;;;;;5015678;28;20188;-87
2022/04/28 08:34:00;;;;;;;8.07;6.50;;;15.00;99.90;;;;;;4999320;28;20191;-87
2022/04/28 08:37:25;;;;;;;6.93;6.00;;;15.20;99.90;;;;;;4998794;28;20178;-86
2022/04/28 08:39:53;;;;;;;5.47;4.50;;;15.50;99.90;;;;;;4998786;28;20187;-86
2022/04/28 08:42:22;;;;;;;5.10;4.20;;;15.80;99.90;;;;;;4998727;28;20277;-87
2022/04/28 08:45:05;;;;;;;4.90;4.40;;;16.00;99.90;;;;;;5000453;28;20230;-86
2022/04/28 08:47:49;;;;;;;4.90;3.70;;;16.10;99.90;;;;;;5017755;28;20214;-87
2022/04/28 08:50:39;;;;;;;5.23;4.03;;;16.20;99.90;;;;;;5017602;28;20205;-86
2022/04/28 08:53:11;;;;;;;5.87;3.90;;;16.40;99.90;;;;;;4999387;28;20163;-86
2022/04/28 08:55:42;;;;;;;4.00;3.60;;;16.60;99.90;;;;;;4999005;28;20201;-87
2022/04/28 08:58:09;;;;;;;3.95;3.65;;;16.70;99.90;;;;;;4998927;28;20336;-87
2022/04/28 09:00:40;;;;;;;4.17;3.53;;;16.80;99.90;;;;;;4999229;28;20167;-86
2022/04/28 09:03:38;;;;;;;5.63;3.45;;;17.00;99.90;;;;;;5017669;28;20251;-87
2022/04/28 09:06:35;;;;;;;4.00;3.67;;;17.20;99.90;;;;;;4966621;28;20204;-87
2022/04/28 09:09:15;;;;;;;4.03;3.30;;;17.30;99.90;;;;;;5015077;28;20152;-87
2022/04/28 09:12:08;;;;;;;3.92;3.33;;;17.40;99.90;;;;;;5010647;28;20269;-87
2022/04/28 09:14:43;;;;;;;3.65;3.35;;;17.50;99.90;;;;;;5015895;28;20204;-87
2022/04/28 09:17:11;;;;;;;3.85;3.28;;;17.60;99.90;;;;;;4998873;28;20198;-86
2022/04/28 09:19:39;;;;;;;3.45;3.15;;;17.60;99.90;;;;;;4998061;28;20179;-87
2022/04/28 09:22:14;;;;;;;4.13;3.45;;;17.60;99.90;;;;;;4999331;28;20190;-87
2022/04/28 09:24:44;;;;;;;5.03;3.40;;;17.80;99.90;;;;;;4998386;28;20198;-87
2022/04/28 09:27:14;;;;;;;4.03;3.53;;;17.90;99.90;;;;;;4998609;28;20207;-87
2022/04/28 09:29:40;;;;;;;3.63;3.33;;;18.00;99.90;;;;;;4999320;28;20269;-87
2022/04/28 09:32:15;;;;;;;5.10;3.60;;;18.10;99.90;;;;;;5014272;28;20178;-87
2022/04/28 09:35:06;;;;;;;4.40;3.70;;;18.20;99.90;;;;;;5031132;28;20190;-87
2022/04/28 09:37:49;;;;;;;6.38;3.40;;;18.20;99.90;;;;;;5028700;28;20186;-87
2022/04/28 09:43:02;;;;;;;4.63;3.78;;;18.40;99.90;;;;;;5014711;28;20232;-87
2022/04/28 09:45:37;;;;;;;4.22;3.83;;;18.50;99.90;;;;;;5029960;28;20256;-87
2022/04/28 09:48:05;;;;;;;5.25;4.22;;;18.60;99.90;;;;;;5030927;28;20178;-87
2022/04/28 09:51:07;;;;;;;3.95;3.65;;;18.60;99.90;;;;;;5027444;28;20175;-87
2022/04/28 09:53:54;;;;;;;4.50;3.40;;;18.60;99.90;;;;;;5030880;28;20201;-87
2022/04/28 09:56:44;;;;;;;4.40;3.70;;;18.60;99.90;;;;;;5026542;28;20187;-87
2022/04/28 09:59:18;;;;;;;6.70;4.00;;;18.70;99.90;;;;;;5033470;28;20189;-87
2022/04/28 10:01:46;;;;;;;4.90;3.05;;;18.70;99.90;;;;;;5017707;28;20190;-87
2022/04/28 10:04:12;;;;;;;3.30;3.00;;;18.80;99.90;;;;;;5034069;28;20209;-87
2022/04/28 10:07:07;;;;;;;4.68;2.90;;;18.60;98.80;;;;;;5034260;28;20212;-87
2022/04/28 10:09:38;;;;;;;5.28;2.95;;;18.60;97.40;;;;;;5033417;28;20213;-87
2022/04/28 10:12:14;;;;;;;4.00;2.92;;;18.70;98.40;;;;;;5033249;28;20179;-87
2022/04/28 10:15:05;;;;;;;2.95;2.60;;;18.70;97.80;;;;;;5034354;28;20205;-87
2022/04/28 10:17:45;;;;;;;4.85;2.90;;;19.00;97.90;;;;;;5034298;28;20594;-87
2022/04/28 10:20:14;;;;;;;2.95;2.65;;;19.20;96.50;;;;;;5033928;28;20184;-87
2022/04/28 10:22:51;;;;;;;3.25;2.60;;;19.30;96.50;;;;;;5034371;28;20189;-86
2022/04/28 10:34:09;;;;;;;3.10;2.80;;;19.40;96.50;;;;;;5043391;28;20217;-86
2022/04/28 10:36:59;;;;;;;3.33;2.80;;;19.50;96.90;;;;;;5030049;28;20181;-86
2022/04/28 10:39:39;;;;;;;4.47;3.20;;;19.70;97.10;;;;;;5036812;28;20262;-86
2022/04/28 10:42:35;;;;;;;3.97;2.90;;;19.60;94.80;;;;;;5027861;28;20174;-86
2022/04/28 10:45:06;;;;;;;3.42;2.80;;;19.60;96.20;;;;;;5010073;28;20195;-86
2022/04/28 10:47:37;;;;;;;3.28;2.90;;;19.70;95.00;;;;;;5039482;28;20208;-86
2022/04/28 10:50:24;;;;;;;5.03;2.83;;;19.80;94.80;;;;;;5035170;28;20291;-86
2022/04/28 10:52:55;;;;;;;3.38;2.83;;;19.80;94.50;;;;;;5021329;28;20185;-85
2022/04/28 10:55:23;;;;;;;3.05;2.63;;;19.70;92.00;;;;;;5053933;28;20208;-86
2022/04/28 10:57:50;;;;;;;4.07;2.75;;;19.40;95.00;;;;;;5028305;28;20177;-86
2022/04/28 11:00:36;;;;;;;3.38;3.08;;;19.60;94.40;;;;;;5018618;28;20194;-86
2022/04/28 11:03:05;;;;;;;3.58;2.63;;;19.70;94.10;;;;;;5026899;28;20173;-86
2022/04/28 11:05:35;;;;;;;4.88;2.50;;;19.90;94.00;;;;;;5025546;28;20280;-86
2022/04/28 11:08:01;;;;;;;4.45;3.08;;;20.10;94.20;;;;;;5047422;28;20185;-86
2022/04/28 11:10:28;;;;;;;3.63;2.92;;;20.30;93.00;;;;;;5036589;28;20232;-85
2022/04/28 11:12:54;;;;;;;3.70;3.13;;;20.40;92.90;;;;;;5053209;28;20221;-86
2022/04/28 11:15:21;;;;;;;2.90;2.70;;;20.30;93.00;;;;;;5036745;28;20202;-86
2022/04/28 11:17:47;;;;;;;3.47;2.90;;;20.40;92.90;;;;;;5036565;28;20170;-86
2022/04/28 11:20:16;;;;;;;3.28;2.97;;;20.30;91.70;;;;;;5036308;28;20265;-86
2022/04/28 11:23:02;;;;;;;3.58;3.03;;;20.60;93.60;;;;;;5052943;28;20175;-86
2022/04/28 11:25:28;;;;;;;2.80;2.60;;;20.80;92.20;;;;;;5053043;28;20312;-86
2022/04/28 11:27:56;;;;;;;2.97;2.35;;;20.70;92.80;;;;;;5052973;28;20252;-86
2022/04/28 11:30:25;;;;;;;3.20;2.90;;;20.80;93.00;;;;;;5029207;28;20182;-86
2022/04/28 11:32:57;;;;;;;3.03;2.70;;;21.00;92.10;;;;;;5020096;28;20182;-86
2022/04/28 11:35:31;;;;;;;3.88;3.00;;;21.00;90.30;;;;;;5020045;28;20194;-86
2022/04/28 11:37:57;;;;;;;4.25;2.47;;;20.30;91.10;;;;;;5028477;28;20189;-85
2022/04/28 11:40:24;;;;;;;3.90;2.53;;;20.30;92.70;;;;;;5016464;28;20171;-86
2022/04/28 11:42:57;;;;;;;5.30;2.60;;;20.60;92.00;;;;;;4999344;28;20190;-86
2022/04/28 11:45:23;;;;;;;3.03;2.67;;;20.90;92.30;;;;;;5015988;28;20236;-86
2022/04/28 11:47:51;;;;;;;3.03;2.60;;;21.10;92.30;;;;;;5016146;28;20281;-85
2022/04/28 11:50:21;;;;;;;3.30;3.00;;;21.30;91.30;;;;;;4999495;28;20185;-86
2022/04/28 11:53:04;;;;;;;4.18;3.10;;;21.50;91.50;;;;;;5001509;28;20179;-86
2022/04/28 11:55:34;;;;;;;3.20;2.90;;;21.40;91.50;;;;;;5018770;28;20202;-86
2022/04/28 11:58:00;;;;;;;2.78;2.58;;;21.50;90.80;;;;;;4999616;28;20186;-85
2022/04/28 12:00:27;;;;;;;3.72;2.47;;;21.70;90.60;;;;;;4999500;28;20225;-86
2022/04/28 12:02:54;;;;;;;2.75;2.50;;;21.90;91.30;;;;;;5015732;28;20182;-86
2022/04/28 12:05:25;;;;;;;3.55;2.90;;;22.00;90.70;;;;;;5022999;28;20666;-86
2022/04/28 12:07:52;;;;;;;3.65;2.80;;;22.10;89.20;;;;;;5019137;28;20236;-86
2022/04/28 12:16:02;;;;;;;3.20;2.90;;;21.60;89.00;;;;;;5015786;28;20252;-79
2022/04/28 12:21:23;;;;;;;3.67;2.55;;;22.00;89.00;;;;;;5023763;28;20212;-80
2022/04/28 12:23:55;;;;;;;4.07;2.95;;;22.00;88.60;;;;;;5039944;28;20177;-79
2022/04/28 12:26:22;;;;;;;2.58;2.30;;;21.60;89.70;;;;;;5032181;28;20263;-79
2022/04/28 12:28:48;;;;;;;4.75;3.13;;;21.80;89.10;;;;;;5039972;28;20257;-84
2022/04/28 12:31:36;;;;;;;4.05;2.88;;;21.90;86.90;;;;;;5017348;28;20178;-86
2022/04/28 12:34:22;;;;;;;3.10;2.80;;;21.90;86.80;;;;;;5020989;28;20241;-87
2022/04/28 12:36:54;;;;;;;5.78;3.58;;;22.00;88.20;;;;;;5022389;28;20193;-86
2022/04/28 12:39:21;;;;;;;3.75;3.28;;;22.30;87.80;;;;;;5022461;28;20201;-86
2022/04/28 12:41:59;;;;;;;3.30;3.00;;;22.40;83.50;;;;;;5021555;28;20182;-87
2022/04/28 12:44:26;;;;;;;2.90;2.67;;;22.50;86.60;;;;;;5021079;28;20292;-86
2022/04/28 12:47:04;;;;;;;4.15;3.15;;;22.70;86.10;;;;;;5017936;28;20201;-86
2022/04/28 12:49:48;;;;;;;3.70;3.38;;;22.70;81.50;;;;;;5018932;28;20192;-86
2022/04/28 12:52:28;;;;;;;3.15;2.85;;;22.10;79.30;;;;;;5021086;28;20206;-86
2022/04/28 12:55:02;;;;;;;2.85;2.65;;;22.10;88.20;;;;;;5039830;28;20205;-87
2022/04/28 12:57:35;;;;;;;3.03;2.38;;;22.20;83.70;;;;;;5036292;28;20190;-86
2022/04/28 13:00:04;;;;;;;3.08;2.67;;;22.10;85.50;;;;;;5037338;28;20260;-86
2022/04/28 13:02:32;;;;;;;5.18;2.85;;;22.10;86.20;;;;;;5016948;28;20186;-86
2022/04/28 13:05:12;;;;;;;5.88;2.60;;;22.30;85.40;;;;;;5025197;28;20197;-87
2022/04/28 13:07:42;;;;;;;3.75;2.70;;;22.60;83.90;;;;;;5040844;28;20204;-86
2022/04/28 13:10:17;;;;;;;3.78;3.00;;;22.50;83.00;;;;;;5016796;28;20181;-87
2022/04/28 13:12:43;;;;;;;3.40;3.10;;;22.40;84.00;;;;;;5039903;28;20177;-87
2022/04/28 13:15:09;;;;;;;4.00;3.50;;;22.40;82.10;;;;;;5026378;28;20199;-87
2022/04/28 13:17:36;;;;;;;4.78;3.00;;;22.30;83.40;;;;;;5014284;28;20182;-87
2022/04/28 13:20:05;;;;;;;3.03;2.75;;;22.50;85.00;;;;;;4997993;28;20301;-86
2022/04/28 13:22:30;;;;;;;3.20;2.65;;;22.80;82.40;;;;;;4998458;28;20183;-86
2022/04/28 13:24:56;;;;;;;3.42;3.00;;;22.90;81.50;;;;;;5014427;28;20202;-86
2022/04/28 13:27:23;;;;;;;3.03;2.75;;;22.60;78.50;;;;;;4998065;28;20297;-86
2022/04/28 13:29:48;;;;;;;4.35;2.53;;;22.80;84.00;;;;;;4997890;28;20190;-87
2022/04/28 13:32:14;;;;;;;2.90;2.33;;;22.60;84.60;;;;;;5016939;28;20241;-86
2022/04/28 13:34:41;;;;;;;3.85;2.58;;;22.80;83.50;;;;;;5002282;28;20198;-86
2022/04/28 13:37:07;;;;;;;2.70;2.50;;;23.00;84.00;;;;;;5001802;28;20276;-86
2022/04/28 13:39:34;;;;;;;4.60;3.33;;;23.10;83.10;;;;;;5001338;28;20221;-87
2022/04/28 13:42:00;;;;;;;3.35;2.90;;;22.90;79.90;;;;;;5003883;28;20190;-86
2022/04/28 13:44:27;;;;;;;3.65;3.08;;;23.00;80.80;;;;;;5010935;28;20206;-87
2022/04/28 13:46:54;;;;;;;3.90;2.97;;;23.10;82.10;;;;;;5021075;28;20216;-87
2022/04/28 13:49:19;;;;;;;3.25;2.70;;;23.30;80.70;;;;;;5037533;28;20651;-87
2022/04/28 13:51:45;;;;;;;3.08;2.78;;;23.60;81.40;;;;;;5018151;28;20183;-87
2022/04/28 13:54:27;;;;;;;4.60;4.15;;;23.60;79.90;;;;;;5013087;28;20251;-87
2022/04/28 13:57:06;;;;;;;4.97;3.15;;;23.70;82.40;;;;;;5006227;28;20175;-86
2022/04/28 13:59:32;;;;;;;3.20;2.65;;;23.60;78.80;;;;;;5010327;28;20264;-86
2022/04/28 14:01:58;;;;;;;4.05;2.75;;;23.40;78.20;;;;;;5001164;28;20206;-87